Time;durP1;ratioP1;P1;durP2;ratioP2;P2;SDS_P1;SDS_P2;PMS_P1;PMS_P2;Temp;Humidity;BMP_temperature;BMP_pressure;BME280_temperature;BME280_humidity;BME280_pressure;Samples;Min_cycle;Max_cycle;Signal;HPM_P1;HPM_P2
2022/04/29 00:02:15;;;;;;;18.60;7.60;;;9.30;99.90;;;;;;5052624;28;20049;-64
2022/04/29 00:04:42;;;;;;;11.00;7.03;;;9.30;99.90;;;;;;5053284;28;20128;-64
2022/04/29 00:07:10;;;;;;;11.90;6.80;;;9.30;99.90;;;;;;5036513;28;20138;-65
2022/04/29 00:09:37;;;;;;;11.27;6.43;;;9.30;99.90;;;;;;5052324;28;20373;-64
2022/04/29 00:12:06;;;;;;;18.40;7.43;;;9.20;99.90;;;;;;5052347;28;20045;-64
2022/04/29 00:14:33;;;;;;;14.15;6.78;;;9.20;99.90;;;;;;5035675;28;20049;-64
2022/04/29 00:16:59;;;;;;;11.80;6.63;;;9.20;99.90;;;;;;5053179;28;20048;-63
2022/04/29 00:19:26;;;;;;;8.90;6.18;;;9.20;99.90;;;;;;5051959;28;20095;-63
2022/04/29 00:21:53;;;;;;;13.20;7.45;;;9.20;99.90;;;;;;5053073;28;20052;-63
2022/04/29 00:24:20;;;;;;;10.63;6.78;;;9.20;99.90;;;;;;5051918;28;20041;-62
2022/04/29 00:26:47;;;;;;;11.23;7.03;;;9.10;99.90;;;;;;5051767;28;20492;-64
2022/04/29 00:29:14;;;;;;;8.15;5.80;;;9.10;99.90;;;;;;5053019;28;20045;-63
2022/04/29 00:31:41;;;;;;;13.07;7.00;;;9.10;99.90;;;;;;5036502;28;20048;-63
2022/04/29 00:34:08;;;;;;;12.75;6.50;;;9.10;99.90;;;;;;5055846;28;20044;-63
2022/04/29 00:36:37;;;;;;;13.88;6.88;;;9.10;99.90;;;;;;5057960;28;20080;-64
2022/04/29 00:39:04;;;;;;;9.85;5.78;;;9.10;99.90;;;;;;5039352;28;20056;-63
2022/04/29 00:41:37;;;;;;;14.68;7.75;;;9.10;99.90;;;;;;5056328;28;20045;-64
2022/04/29 00:44:05;;;;;;;14.15;6.80;;;9.10;99.90;;;;;;5039057;28;20079;-65
2022/04/29 00:46:40;;;;;;;15.38;8.15;;;9.10;99.90;;;;;;5056837;28;20048;-64
2022/04/29 00:49:09;;;;;;;13.52;7.07;;;9.00;99.90;;;;;;5056766;28;20040;-64
2022/04/29 00:51:36;;;;;;;11.68;6.75;;;9.00;99.90;;;;;;5056755;28;20041;-64
2022/04/29 00:54:04;;;;;;;11.52;7.85;;;9.00;99.90;;;;;;5056390;28;20045;-64
2022/04/29 00:56:32;;;;;;;12.52;7.35;;;8.90;99.90;;;;;;5057591;28;20317;-64
2022/04/29 00:59:04;;;;;;;23.95;9.65;;;8.90;99.90;;;;;;5055829;28;20056;-64
2022/04/29 01:01:32;;;;;;;12.82;7.13;;;8.90;99.90;;;;;;5056260;28;20041;-64
2022/04/29 01:04:01;;;;;;;15.43;6.97;;;8.90;99.90;;;;;;5039656;28;20067;-64
2022/04/29 01:06:28;;;;;;;14.52;7.30;;;8.80;99.90;;;;;;5039011;28;20484;-64
2022/04/29 01:08:55;;;;;;;12.30;7.30;;;8.80;99.90;;;;;;5039124;28;20048;-64
2022/04/29 01:11:23;;;;;;;10.35;6.57;;;8.80;99.90;;;;;;5039013;28;20473;-64
2022/04/29 01:13:51;;;;;;;18.63;7.25;;;8.80;99.90;;;;;;5055500;28;20393;-64
2022/04/29 01:16:18;;;;;;;20.65;7.95;;;8.80;99.90;;;;;;5057162;28;20037;-64
2022/04/29 01:18:46;;;;;;;16.55;7.57;;;8.90;99.90;;;;;;5055122;28;20044;-64
2022/04/29 01:21:13;;;;;;;11.25;6.75;;;8.80;99.90;;;;;;5056180;28;20045;-64
2022/04/29 01:23:41;;;;;;;9.40;6.88;;;8.80;99.90;;;;;;5056418;28;20476;-64
2022/04/29 01:26:10;;;;;;;12.45;6.95;;;8.80;99.90;;;;;;5055355;28;20090;-64
2022/04/29 01:28:37;;;;;;;14.43;7.40;;;8.80;99.90;;;;;;5056202;28;20044;-64
2022/04/29 01:31:04;;;;;;;10.85;7.05;;;8.80;99.90;;;;;;5057384;28;20071;-64
2022/04/29 01:33:32;;;;;;;17.75;8.30;;;8.70;99.90;;;;;;5055386;28;20045;-64
2022/04/29 01:35:59;;;;;;;13.85;6.32;;;8.70;99.90;;;;;;5039284;28;20048;-64
2022/04/29 01:38:26;;;;;;;13.25;6.50;;;8.70;99.90;;;;;;5056212;28;20041;-64
2022/04/29 01:40:52;;;;;;;19.73;7.50;;;8.70;99.90;;;;;;5054791;28;20515;-64
2022/04/29 01:43:19;;;;;;;10.65;6.45;;;8.60;99.90;;;;;;5055347;28;20048;-64
2022/04/29 01:45:46;;;;;;;11.82;7.32;;;8.60;99.90;;;;;;5056310;28;20048;-64
2022/04/29 01:48:13;;;;;;;13.73;7.30;;;8.60;99.90;;;;;;5054487;28;20041;-64
2022/04/29 01:50:40;;;;;;;11.85;7.70;;;8.60;99.90;;;;;;5055991;28;20098;-64
2022/04/29 01:53:07;;;;;;;13.98;7.60;;;8.60;99.90;;;;;;5056507;28;20052;-64
2022/04/29 01:55:34;;;;;;;10.30;6.85;;;8.50;99.90;;;;;;5054750;28;20052;-64
2022/04/29 01:58:00;;;;;;;19.90;7.75;;;8.50;99.90;;;;;;5054679;28;20045;-64
2022/04/29 02:00:27;;;;;;;13.00;7.30;;;8.50;99.90;;;;;;5056464;28;20080;-64
2022/04/29 02:02:55;;;;;;;20.45;7.13;;;8.50;99.90;;;;;;5056223;28;20090;-64
2022/04/29 02:05:22;;;;;;;12.52;7.80;;;8.40;99.90;;;;;;5054222;28;20091;-64
2022/04/29 02:07:50;;;;;;;14.93;7.95;;;8.40;99.90;;;;;;5055945;28;20446;-65
2022/04/29 02:10:17;;;;;;;12.52;8.23;;;8.30;99.90;;;;;;5037650;28;20048;-65
2022/04/29 02:12:43;;;;;;;15.95;7.70;;;8.30;99.90;;;;;;5056331;28;20052;-64
2022/04/29 02:15:11;;;;;;;10.80;7.07;;;8.30;99.90;;;;;;5055240;28;20049;-64
2022/04/29 02:17:37;;;;;;;19.15;8.50;;;8.30;99.90;;;;;;5055155;28;20045;-64
2022/04/29 02:20:05;;;;;;;14.23;7.47;;;8.20;99.90;;;;;;5055174;28;20045;-64
2022/04/29 02:22:32;;;;;;;12.40;6.45;;;8.10;99.90;;;;;;5053941;28;20392;-64
2022/04/29 02:24:59;;;;;;;13.25;7.80;;;8.10;99.90;;;;;;5038165;28;20420;-64
2022/04/29 02:27:25;;;;;;;16.10;8.23;;;8.10;99.90;;;;;;5054990;28;20049;-64
2022/04/29 02:29:52;;;;;;;18.42;7.88;;;8.00;99.90;;;;;;5055230;28;20045;-64
2022/04/29 02:32:20;;;;;;;13.68;8.02;;;8.00;99.90;;;;;;5037381;28;20040;-64
2022/04/29 02:34:47;;;;;;;16.92;8.30;;;8.00;99.90;;;;;;5055231;28;20040;-64
2022/04/29 02:37:15;;;;;;;17.15;8.13;;;8.00;99.90;;;;;;5053882;28;20067;-63
2022/04/29 02:39:42;;;;;;;16.52;8.35;;;7.90;99.90;;;;;;5054731;28;20056;-63
2022/04/29 02:42:10;;;;;;;17.25;9.60;;;7.90;99.90;;;;;;5054650;28;20158;-63
2022/04/29 02:44:37;;;;;;;17.65;7.78;;;7.90;99.90;;;;;;5054130;28;20053;-63
2022/04/29 02:47:07;;;;;;;15.10;8.18;;;7.80;99.90;;;;;;5054490;28;20060;-63
2022/04/29 02:49:53;;;;;;;14.30;7.43;;;7.80;99.90;;;;;;5054722;28;20453;-63
2022/04/29 02:52:19;;;;;;;16.38;8.73;;;7.80;99.90;;;;;;5053513;28;20036;-63
2022/04/29 02:54:46;;;;;;;16.45;7.75;;;7.70;99.90;;;;;;5054084;28;20496;-63
2022/04/29 02:57:13;;;;;;;14.60;7.80;;;7.70;99.90;;;;;;5052459;28;20072;-63
2022/04/29 02:59:40;;;;;;;11.63;7.25;;;7.70;99.90;;;;;;5053451;28;20476;-64
2022/04/29 03:02:08;;;;;;;15.32;8.20;;;7.70;99.90;;;;;;5052412;28;20072;-64
2022/04/29 03:04:35;;;;;;;16.35;8.38;;;7.60;99.90;;;;;;5052152;28;20053;-65
2022/04/29 03:07:02;;;;;;;15.65;9.95;;;7.60;99.90;;;;;;5054444;28;20041;-64
2022/04/29 03:09:29;;;;;;;21.83;9.00;;;7.60;99.90;;;;;;5053350;28;20491;-65
2022/04/29 03:11:56;;;;;;;21.63;8.75;;;7.50;99.90;;;;;;5054317;28;20045;-64
2022/04/29 03:14:23;;;;;;;17.73;8.70;;;7.50;99.90;;;;;;5053837;28;20041;-64
2022/04/29 03:16:50;;;;;;;13.93;9.15;;;7.40;99.90;;;;;;5053500;28;20468;-63
2022/04/29 03:19:17;;;;;;;16.75;9.43;;;7.40;99.90;;;;;;5054218;28;20041;-64
2022/04/29 03:21:44;;;;;;;21.45;9.68;;;7.30;99.90;;;;;;5053206;28;20080;-63
2022/04/29 03:24:11;;;;;;;18.02;8.55;;;7.30;99.90;;;;;;5053882;28;20445;-64
2022/04/29 03:26:40;;;;;;;20.40;9.68;;;7.30;99.90;;;;;;5053077;28;20048;-63
2022/04/29 03:29:07;;;;;;;15.63;9.38;;;7.30;99.90;;;;;;5052081;28;20353;-63
2022/04/29 03:31:34;;;;;;;15.20;8.80;;;7.30;99.90;;;;;;5053705;28;20048;-64
2022/04/29 03:34:01;;;;;;;22.65;9.57;;;7.20;99.90;;;;;;5035801;28;20045;-63
2022/04/29 03:36:28;;;;;;;21.63;8.68;;;7.20;99.90;;;;;;5053249;28;20048;-63
2022/04/29 03:38:55;;;;;;;18.17;9.32;;;7.20;99.90;;;;;;5051989;28;20045;-63
2022/04/29 03:41:22;;;;;;;14.73;9.02;;;7.20;99.90;;;;;;5053708;28;20041;-64
2022/04/29 03:43:55;;;;;;;16.73;9.75;;;7.10;99.90;;;;;;5052679;28;20045;-63
2022/04/29 03:46:22;;;;;;;14.45;8.38;;;7.10;99.90;;;;;;5011014;28;1203133;-63
2022/04/29 03:51:35;;;;;;;15.85;9.02;;;7.00;99.90;;;;;;5053560;28;20045;-63
2022/04/29 03:54:02;;;;;;;19.90;9.07;;;7.00;99.90;;;;;;5053677;28;20476;-63
2022/04/29 03:56:28;;;;;;;18.23;8.93;;;7.00;99.90;;;;;;5054446;28;20044;-63
2022/04/29 03:58:57;;;;;;;18.85;10.00;;;7.00;99.90;;;;;;5054425;28;20516;-64
2022/04/29 04:01:23;;;;;;;15.68;9.05;;;6.90;99.90;;;;;;5053373;28;20049;-64
2022/04/29 04:03:50;;;;;;;13.80;8.50;;;6.90;99.90;;;;;;5053541;28;20053;-64
2022/04/29 04:09:03;;;;;;;15.18;9.52;;;6.80;99.90;;;;;;5053574;28;20487;-64
2022/04/29 04:11:30;;;;;;;18.73;9.90;;;6.80;99.90;;;;;;5052006;28;20037;-64
2022/04/29 04:13:56;;;;;;;15.80;9.45;;;6.80;99.90;;;;;;5052300;28;20045;-64
2022/04/29 04:16:24;;;;;;;21.63;10.18;;;6.80;99.90;;;;;;5053066;28;20052;-64
2022/04/29 04:18:51;;;;;;;12.50;8.98;;;6.70;99.90;;;;;;5051909;28;20543;-64
2022/04/29 04:21:18;;;;;;;13.93;8.60;;;6.70;99.90;;;;;;5052244;28;20041;-64
2022/04/29 04:23:44;;;;;;;13.95;8.43;;;6.70;99.90;;;;;;5052902;28;20041;-64
2022/04/29 04:26:11;;;;;;;14.85;9.43;;;6.70;99.90;;;;;;5053072;28;20496;-64
2022/04/29 04:28:38;;;;;;;17.85;10.73;;;6.70;99.90;;;;;;5052436;28;20049;-64
2022/04/29 04:31:05;;;;;;;18.60;10.43;;;6.60;99.90;;;;;;5051794;28;20044;-64
2022/04/29 04:33:33;;;;;;;15.80;9.63;;;6.60;99.90;;;;;;5051764;28;20045;-63
2022/04/29 04:36:00;;;;;;;15.25;9.70;;;6.60;99.90;;;;;;5054063;28;20049;-63
2022/04/29 04:38:26;;;;;;;16.38;9.57;;;6.60;99.90;;;;;;5053014;28;20060;-64
2022/04/29 04:40:55;;;;;;;14.32;9.27;;;6.60;99.90;;;;;;5053482;28;20041;-64
2022/04/29 04:43:23;;;;;;;15.60;8.77;;;6.60;99.90;;;;;;5053101;28;20483;-64
2022/04/29 04:45:50;;;;;;;19.23;10.57;;;6.60;99.90;;;;;;5035644;28;20487;-63
2022/04/29 04:48:18;;;;;;;19.73;9.75;;;6.60;99.90;;;;;;5053593;28;20076;-64
2022/04/29 04:50:45;;;;;;;16.75;10.23;;;6.60;99.90;;;;;;5035292;28;20041;-65
2022/04/29 04:53:12;;;;;;;18.23;11.43;;;6.60;99.90;;;;;;5053635;28;20045;-63
2022/04/29 04:55:39;;;;;;;13.70;9.25;;;6.50;99.90;;;;;;5051958;28;20044;-63
2022/04/29 04:58:08;;;;;;;19.05;10.52;;;6.50;99.90;;;;;;5052770;28;20496;-64
2022/04/29 05:00:35;;;;;;;21.95;10.40;;;6.60;99.90;;;;;;5035262;28;20041;-64
2022/04/29 05:03:03;;;;;;;13.95;9.35;;;6.60;99.90;;;;;;5052932;28;20132;-64
2022/04/29 05:05:31;;;;;;;20.67;10.75;;;6.60;99.90;;;;;;5052282;28;20049;-64
2022/04/29 05:07:58;;;;;;;14.43;9.52;;;6.60;99.90;;;;;;5052594;28;20051;-64
2022/04/29 05:10:25;;;;;;;17.55;9.32;;;6.60;99.90;;;;;;5035801;28;20041;-64
2022/04/29 05:12:52;;;;;;;22.55;11.80;;;6.70;99.90;;;;;;5052548;28;20045;-63
2022/04/29 05:15:19;;;;;;;13.18;9.05;;;6.70;99.90;;;;;;5035742;28;20067;-64
2022/04/29 05:17:46;;;;;;;16.45;10.20;;;6.80;99.90;;;;;;5053813;28;20045;-63
2022/04/29 05:20:13;;;;;;;15.35;9.90;;;6.90;99.90;;;;;;5054952;28;20052;-64
2022/04/29 05:22:40;;;;;;;16.38;9.85;;;7.00;99.90;;;;;;5038528;28;20045;-64
2022/04/29 05:25:07;;;;;;;18.13;10.65;;;7.20;99.90;;;;;;5056470;28;20041;-63
2022/04/29 05:27:34;;;;;;;13.18;9.25;;;7.30;99.90;;;;;;5056098;28;20468;-63
2022/04/29 05:30:02;;;;;;;16.63;9.48;;;7.60;99.90;;;;;;5055261;28;20067;-64
2022/04/29 05:32:34;;;;;;;15.60;8.98;;;7.90;99.90;;;;;;5056964;28;20376;-64
2022/04/29 05:35:01;;;;;;;13.10;8.38;;;8.10;99.90;;;;;;5056062;28;20502;-64
2022/04/29 05:37:28;;;;;;;14.98;8.77;;;8.00;99.90;;;;;;5054756;28;20483;-65
2022/04/29 05:42:41;;;;;;;16.08;8.07;;;8.00;99.90;;;;;;5054838;28;20489;-64
2022/04/29 05:45:08;;;;;;;10.23;7.50;;;7.90;99.90;;;;;;5054490;28;20052;-64
2022/04/29 05:47:35;;;;;;;20.10;8.88;;;8.00;99.90;;;;;;5056022;28;20468;-64
2022/04/29 05:50:03;;;;;;;16.60;8.63;;;8.10;99.90;;;;;;5054614;28;20044;-65
2022/04/29 05:52:30;;;;;;;10.65;6.97;;;8.10;99.90;;;;;;5054747;28;20041;-64
2022/04/29 05:54:58;;;;;;;19.42;9.50;;;8.00;99.90;;;;;;5038567;28;20049;-64
2022/04/29 05:57:25;;;;;;;11.05;6.97;;;7.90;99.90;;;;;;5055570;28;20503;-64
2022/04/29 05:59:51;;;;;;;10.95;6.78;;;7.80;99.90;;;;;;5055821;28;20060;-65
2022/04/29 06:02:18;;;;;;;14.57;7.57;;;7.80;99.90;;;;;;5055421;28;20048;-64
2022/04/29 06:04:45;;;;;;;11.75;7.57;;;7.70;99.90;;;;;;5055202;28;20041;-64
2022/04/29 06:07:12;;;;;;;17.42;6.07;;;7.60;99.90;;;;;;5037938;28;20128;-65
2022/04/29 06:09:39;;;;;;;16.27;8.27;;;7.60;99.90;;;;;;5055634;28;20044;-65
2022/04/29 06:12:07;;;;;;;45.53;27.90;;;7.50;99.90;;;;;;5055321;28;20435;-65
2022/04/29 06:14:35;;;;;;;14.98;10.98;;;7.50;99.90;;;;;;5038084;28;20049;-63
2022/04/29 06:17:02;;;;;;;10.13;7.18;;;7.50;99.90;;;;;;5055521;28;20037;-63
2022/04/29 06:19:29;;;;;;;10.70;6.45;;;7.60;99.90;;;;;;5055156;28;20357;-70
2022/04/29 06:21:56;;;;;;;18.38;8.70;;;7.60;99.90;;;;;;5037458;28;20481;-68
2022/04/29 06:24:23;;;;;;;16.08;7.18;;;7.60;99.90;;;;;;5054971;28;20041;-69
2022/04/29 06:26:50;;;;;;;11.75;6.53;;;7.70;99.90;;;;;;5054999;28;20461;-68
2022/04/29 06:29:17;;;;;;;10.77;6.47;;;7.70;99.90;;;;;;5054906;28;20361;-68
2022/04/29 06:31:43;;;;;;;16.20;7.07;;;7.90;99.90;;;;;;5054864;28;20115;-65
2022/04/29 06:34:10;;;;;;;13.10;6.95;;;7.90;99.90;;;;;;5055224;28;20131;-65
2022/04/29 06:36:37;;;;;;;12.38;6.75;;;8.10;99.90;;;;;;5055394;28;20074;-64
2022/04/29 06:39:04;;;;;;;15.68;5.65;;;8.20;99.90;;;;;;5054826;28;20044;-65
2022/04/29 06:41:31;;;;;;;12.32;6.10;;;8.30;99.90;;;;;;5055094;28;20041;-72
2022/04/29 06:43:58;;;;;;;14.95;6.45;;;8.40;99.90;;;;;;5054614;28;20574;-68
2022/04/29 06:46:25;;;;;;;9.20;6.18;;;8.50;99.90;;;;;;5054368;28;20052;-63
2022/04/29 06:48:56;;;;;;;17.98;8.05;;;8.50;99.90;;;;;;5053749;28;20124;-63
2022/04/29 06:51:23;;;;;;;10.05;5.50;;;8.60;99.90;;;;;;5055479;28;20416;-63
2022/04/29 06:53:50;;;;;;;13.88;6.47;;;8.70;99.90;;;;;;5038041;28;20045;-63
2022/04/29 06:56:16;;;;;;;12.82;5.43;;;8.80;99.90;;;;;;5055064;28;20037;-63
2022/04/29 06:58:43;;;;;;;9.40;5.32;;;8.80;99.90;;;;;;5054055;28;20045;-63
2022/04/29 07:01:17;;;;;;;11.15;5.75;;;8.90;99.90;;;;;;5037716;28;20041;-63
2022/04/29 07:03:44;;;;;;;13.50;5.65;;;8.90;99.90;;;;;;5055334;28;20045;-64
2022/04/29 07:06:11;;;;;;;11.98;4.88;;;8.90;99.90;;;;;;5054357;28;20476;-63
2022/04/29 07:08:38;;;;;;;13.38;4.80;;;9.00;99.90;;;;;;5053910;28;20041;-64
2022/04/29 07:11:07;;;;;;;7.53;4.95;;;9.00;99.90;;;;;;5053944;28;20041;-79
2022/04/29 07:13:34;;;;;;;10.35;4.68;;;9.10;99.90;;;;;;5053137;28;20048;-77
2022/04/29 07:16:00;;;;;;;9.10;5.25;;;9.30;99.90;;;;;;5054103;28;20411;-73
2022/04/29 07:18:27;;;;;;;10.00;4.90;;;9.40;99.90;;;;;;5053421;28;20384;-73
2022/04/29 07:20:54;;;;;;;9.18;5.18;;;9.40;99.90;;;;;;5054474;28;20483;-77
2022/04/29 07:23:21;;;;;;;7.32;4.50;;;9.50;99.90;;;;;;5054092;28;20037;-76
2022/04/29 07:25:50;;;;;;;8.73;4.68;;;9.60;99.90;;;;;;5036755;28;20037;-78
2022/04/29 07:28:17;;;;;;;10.88;4.40;;;9.60;99.90;;;;;;5053167;28;20076;-76
2022/04/29 07:30:44;;;;;;;7.90;4.30;;;9.80;99.90;;;;;;5053017;28;20043;-77
2022/04/29 07:33:11;;;;;;;9.23;4.47;;;9.80;99.90;;;;;;5054355;28;20041;-71
2022/04/29 07:43:56;;;;;;;8.27;4.07;;;10.00;99.90;;;;;;5053865;28;20045;-69
2022/04/29 07:46:22;;;;;;;7.45;3.53;;;10.10;99.90;;;;;;5054886;28;20341;-71
2022/04/29 07:48:49;;;;;;;7.47;3.90;;;10.20;99.90;;;;;;5052288;28;20048;-70
2022/04/29 07:51:16;;;;;;;8.40;3.88;;;10.20;99.90;;;;;;5053496;28;20468;-71
2022/04/29 07:53:43;;;;;;;9.70;4.30;;;10.30;99.90;;;;;;5053710;28;20056;-70
2022/04/29 07:56:10;;;;;;;12.30;4.57;;;10.40;99.90;;;;;;5053739;28;20392;-69
2022/04/29 07:58:38;;;;;;;10.00;3.45;;;10.50;99.90;;;;;;5052917;28;20063;-71
2022/04/29 08:01:09;;;;;;;9.32;3.90;;;10.40;99.90;;;;;;5053529;28;20116;-71
2022/04/29 08:03:37;;;;;;;9.07;3.63;;;10.50;99.90;;;;;;5036522;28;20052;-70
2022/04/29 08:06:05;;;;;;;7.85;3.47;;;10.50;99.90;;;;;;5052390;28;20384;-72
2022/04/29 08:08:32;;;;;;;8.68;3.85;;;10.50;99.50;;;;;;5036050;28;20357;-67
2022/04/29 08:10:59;;;;;;;22.08;14.75;;;10.50;99.70;;;;;;5053016;28;20041;-69
2022/04/29 08:13:27;;;;;;;11.95;4.70;;;10.60;99.90;;;;;;5052477;28;20128;-71
2022/04/29 08:15:54;;;;;;;7.95;4.00;;;10.70;99.90;;;;;;5053394;28;20128;-73
2022/04/29 08:18:21;;;;;;;11.15;4.30;;;10.90;99.90;;;;;;5052984;28;20037;-72
2022/04/29 08:20:48;;;;;;;10.43;3.20;;;10.80;99.00;;;;;;5053804;28;20068;-76
2022/04/29 08:23:15;;;;;;;12.32;4.18;;;10.90;99.10;;;;;;5053167;28;20045;-73
2022/04/29 08:25:42;;;;;;;23.35;11.50;;;10.90;98.60;;;;;;5051991;28;20041;-73
2022/04/29 08:28:09;;;;;;;10.60;4.50;;;11.10;98.40;;;;;;5053872;28;20128;-74
2022/04/29 08:30:36;;;;;;;7.20;3.40;;;11.30;96.00;;;;;;5051557;28;20461;-74
2022/04/29 08:33:03;;;;;;;9.90;3.45;;;11.40;97.30;;;;;;5035923;28;20051;-73
2022/04/29 08:35:30;;;;;;;8.35;3.63;;;11.60;95.80;;;;;;5053596;28;20047;-74
2022/04/29 08:37:57;;;;;;;8.60;3.83;;;11.90;95.50;;;;;;5051871;28;20048;-74
2022/04/29 08:40:24;;;;;;;5.70;3.35;;;12.00;91.80;;;;;;5054343;28;20131;-73
2022/04/29 08:42:53;;;;;;;12.15;3.20;;;11.80;91.30;;;;;;5035545;28;20037;-73
2022/04/29 08:45:20;;;;;;;7.95;3.25;;;11.70;91.90;;;;;;5051491;28;20060;-73
2022/04/29 08:47:47;;;;;;;8.85;4.03;;;11.80;92.60;;;;;;5035184;28;20375;-73
2022/04/29 08:50:15;;;;;;;12.38;3.60;;;11.80;91.30;;;;;;5051426;28;20041;-73
2022/04/29 08:52:43;;;;;;;10.07;4.43;;;11.80;90.80;;;;;;5051455;28;20045;-74
2022/04/29 09:00:44;;;;;;;6.20;2.97;;;12.10;90.20;;;;;;5055938;28;20045;-73
2022/04/29 09:03:20;;;;;;;6.80;3.50;;;12.00;89.00;;;;;;5055602;28;20067;-73
2022/04/29 09:05:48;;;;;;;6.15;2.97;;;11.90;86.60;;;;;;5040182;28;20099;-73
2022/04/29 09:08:20;;;;;;;10.20;3.90;;;11.80;87.10;;;;;;5056324;28;20130;-73
2022/04/29 09:10:57;;;;;;;6.15;4.18;;;11.70;89.30;;;;;;5039930;28;20045;-74
2022/04/29 09:13:29;;;;;;;6.10;3.10;;;11.80;90.60;;;;;;5039902;28;20345;-73
2022/04/29 09:16:04;;;;;;;6.80;3.97;;;11.60;89.30;;;;;;5055137;28;20044;-73
2022/04/29 09:18:48;;;;;;;4.50;2.90;;;11.50;90.00;;;;;;5056589;28;20041;-74
2022/04/29 09:21:24;;;;;;;5.45;3.50;;;11.30;89.60;;;;;;5055173;28;20049;-74
2022/04/29 09:23:57;;;;;;;5.72;3.13;;;11.20;90.50;;;;;;5056119;28;20045;-74
2022/04/29 09:26:25;;;;;;;6.30;2.80;;;11.10;90.70;;;;;;5055007;28;20080;-74
2022/04/29 09:28:52;;;;;;;6.70;2.83;;;11.00;89.70;;;;;;5054893;28;20057;-74
2022/04/29 09:31:19;;;;;;;6.03;3.60;;;11.20;90.30;;;;;;5055817;28;20040;-74
2022/04/29 09:34:06;;;;;;;6.30;2.85;;;11.10;90.20;;;;;;5054968;28;20110;-74
2022/04/29 09:36:33;;;;;;;7.40;2.97;;;11.20;91.40;;;;;;5055086;28;20041;-74
2022/04/29 09:41:54;;;;;;;5.20;2.33;;;11.10;86.60;;;;;;5040990;28;20051;-74
2022/04/29 09:44:36;;;;;;;5.65;2.72;;;11.10;84.90;;;;;;5038912;28;20045;-73
2022/04/29 09:47:12;;;;;;;6.20;3.20;;;11.10;83.20;;;;;;5056589;28;20423;-74
2022/04/29 09:49:39;;;;;;;5.22;2.85;;;11.00;85.00;;;;;;5054596;28;20047;-74
2022/04/29 09:52:07;;;;;;;4.82;2.42;;;11.00;85.80;;;;;;5038060;28;20491;-74
2022/04/29 09:54:37;;;;;;;10.32;4.05;;;10.90;85.40;;;;;;5054343;28;20076;-74
2022/04/29 09:57:09;;;;;;;6.20;2.90;;;10.90;85.90;;;;;;5038458;28;20107;-74
2022/04/29 09:59:36;;;;;;;7.75;3.65;;;10.90;85.50;;;;;;5055357;28;20051;-74
2022/04/29 10:02:04;;;;;;;8.25;2.85;;;10.90;86.20;;;;;;5055240;28;20053;-74
2022/04/29 10:04:34;;;;;;;4.72;2.65;;;11.00;84.40;;;;;;5054606;28;20464;-74
2022/04/29 10:07:03;;;;;;;4.35;2.60;;;11.10;82.90;;;;;;5055849;28;20068;-74
2022/04/29 10:09:32;;;;;;;5.65;3.20;;;11.00;82.40;;;;;;5037641;28;20056;-74
2022/04/29 10:12:04;;;;;;;8.82;3.35;;;11.10;83.70;;;;;;5038878;28;20045;-74
2022/04/29 10:14:33;;;;;;;6.55;3.33;;;11.20;82.50;;;;;;5056307;28;20045;-74
2022/04/29 10:22:40;;;;;;;9.30;3.55;;;11.20;85.00;;;;;;5055054;28;20049;-73
2022/04/29 10:25:11;;;;;;;4.82;3.17;;;11.20;85.30;;;;;;5055380;28;20048;-74
2022/04/29 10:27:39;;;;;;;10.63;4.05;;;11.20;85.70;;;;;;5037335;28;20055;-75
2022/04/29 10:30:07;;;;;;;9.32;4.00;;;11.20;84.30;;;;;;5053977;28;20048;-74
2022/04/29 10:33:06;;;;;;;6.18;4.05;;;11.30;86.10;;;;;;5055933;28;20429;-66
2022/04/29 10:35:39;;;;;;;;;;;11.20;85.10;;;;;;5056084;28;20372;-71
2022/04/29 10:38:26;;;;;;;6.65;4.20;;;11.30;85.50;;;;;;5055009;28;19939;-71
2022/04/29 10:41:21;;;;;;;19.80;14.68;;;11.30;84.60;;;;;;5054450;28;20045;-72
2022/04/29 10:43:51;;;;;;;7.75;4.88;;;11.30;82.40;;;;;;5053869;28;20055;-71
2022/04/29 10:46:24;;;;;;;6.32;4.13;;;11.20;84.30;;;;;;5055326;28;20114;-71
2022/04/29 10:48:54;;;;;;;8.32;4.00;;;11.20;86.70;;;;;;5054975;28;20045;-72
2022/04/29 10:51:41;;;;;;;5.50;3.63;;;11.30;85.20;;;;;;5054845;28;20099;-72
2022/04/29 10:54:08;;;;;;;10.38;4.45;;;11.30;85.40;;;;;;5054663;28;20064;-72
2022/04/29 10:56:36;;;;;;;8.02;4.68;;;11.30;85.80;;;;;;5054422;28;20045;-71
2022/04/29 10:59:09;;;;;;;7.53;3.42;;;11.10;84.70;;;;;;5036947;28;20083;-74
2022/04/29 11:01:37;;;;;;;8.18;3.45;;;11.10;85.30;;;;;;5054299;28;20132;-71
2022/04/29 11:04:05;;;;;;;51.80;37.38;;;11.10;84.00;;;;;;5054097;28;20073;-72
2022/04/29 11:06:36;;;;;;;10.65;5.50;;;11.10;85.00;;;;;;5021124;28;20048;-73
2022/04/29 11:09:23;;;;;;;7.68;4.50;;;11.20;84.80;;;;;;5052921;28;20049;-73
2022/04/29 11:11:50;;;;;;;6.65;3.50;;;11.40;84.10;;;;;;5055132;28;20048;-74
2022/04/29 11:14:17;;;;;;;6.93;3.80;;;11.50;83.10;;;;;;5036621;28;20044;-72
2022/04/29 11:17:07;;;;;;;6.93;3.35;;;11.70;80.50;;;;;;5054404;28;20044;-73
2022/04/29 11:19:35;;;;;;;5.72;3.53;;;11.70;78.00;;;;;;5055065;28;20037;-73
2022/04/29 11:24:49;;;;;;;6.18;3.33;;;12.20;77.80;;;;;;5054887;28;20052;-76
2022/04/29 11:27:26;;;;;;;6.53;3.40;;;12.40;77.80;;;;;;5036373;28;20489;-71
2022/04/29 11:29:54;;;;;;;8.38;3.17;;;12.60;75.60;;;;;;5053312;28;20040;-75
2022/04/29 11:32:24;;;;;;;9.20;3.50;;;12.60;75.40;;;;;;5036644;28;20044;-70
2022/04/29 11:34:55;;;;;;;5.53;3.22;;;12.70;74.40;;;;;;5054698;28;20072;-75
2022/04/29 11:37:23;;;;;;;4.68;3.38;;;12.70;72.60;;;;;;5053613;28;20041;-75
2022/04/29 11:39:56;;;;;;;5.35;3.40;;;12.50;73.40;;;;;;5054080;28;20037;-75
2022/04/29 11:42:23;;;;;;;7.68;4.05;;;12.50;71.80;;;;;;5053440;28;20051;-75
2022/04/29 11:44:50;;;;;;;9.55;3.58;;;12.50;72.30;;;;;;5052110;28;20076;-74
2022/04/29 11:47:24;;;;;;;6.55;3.80;;;12.50;72.60;;;;;;5054020;28;20041;-69
2022/04/29 11:49:52;;;;;;;6.30;3.25;;;12.50;71.10;;;;;;5053859;28;20045;-67
2022/04/29 11:52:25;;;;;;;7.93;4.10;;;12.40;73.00;;;;;;5052561;28;20045;-73
2022/04/29 11:54:56;;;;;;;6.35;3.72;;;12.40;73.40;;;;;;5052984;28;20418;-73
2022/04/29 11:57:24;;;;;;;7.80;3.90;;;12.50;74.60;;;;;;5036430;28;20040;-75
2022/04/29 11:59:51;;;;;;;8.05;3.83;;;12.70;74.50;;;;;;5035506;28;20131;-73
2022/04/29 12:02:27;;;;;;;7.85;3.60;;;12.70;72.90;;;;;;5052651;28;20044;-74
2022/04/29 12:04:58;;;;;;;6.63;3.97;;;12.60;72.70;;;;;;5053842;28;20044;-71
2022/04/29 12:07:27;;;;;;;12.63;4.78;;;12.40;74.50;;;;;;5052241;28;20081;-75
2022/04/29 12:09:54;;;;;;;10.82;4.63;;;12.50;75.40;;;;;;5053172;28;20044;-73
2022/04/29 12:12:33;;;;;;;11.10;5.68;;;12.40;74.90;;;;;;5053388;28;20044;-72
2022/04/29 12:15:03;;;;;;;8.63;4.43;;;12.50;75.20;;;;;;5052224;28;20045;-73
2022/04/29 12:17:35;;;;;;;9.65;4.18;;;12.60;76.90;;;;;;5036600;28;20041;-74
2022/04/29 12:20:03;;;;;;;57.78;48.10;;;12.50;75.20;;;;;;5052063;28;20051;-70
2022/04/29 12:22:31;;;;;;;9.35;7.07;;;12.40;75.90;;;;;;5052810;28;20053;-72
2022/04/29 12:25:17;;;;;;;8.10;5.40;;;12.30;76.30;;;;;;5053144;28;20067;-72
2022/04/29 12:27:45;;;;;;;16.60;5.90;;;12.40;76.20;;;;;;5054152;28;20052;-71
2022/04/29 12:36:14;;;;;;;7.30;4.85;;;12.40;76.40;;;;;;5055139;28;20052;-70
2022/04/29 12:38:42;;;;;;;8.13;4.70;;;12.50;77.10;;;;;;5040277;28;20048;-71
2022/04/29 12:41:27;;;;;;;8.38;4.85;;;12.60;76.30;;;;;;5056024;28;20391;-72
2022/04/29 12:44:08;;;;;;;9.73;4.65;;;12.50;76.00;;;;;;5056861;28;20381;-72
2022/04/29 12:46:35;;;;;;;6.80;4.32;;;12.40;77.90;;;;;;5024317;28;20049;-77
2022/04/29 12:49:07;;;;;;;6.70;4.72;;;12.50;77.50;;;;;;5040243;28;20049;-71
2022/04/29 12:51:34;;;;;;;7.70;5.03;;;12.50;77.00;;;;;;5039903;28;20045;-72
2022/04/29 12:54:05;;;;;;;5.28;4.18;;;12.50;77.50;;;;;;5040222;28;20045;-72
2022/04/29 12:56:35;;;;;;;8.40;4.65;;;12.60;77.20;;;;;;5055908;28;20045;-72
2022/04/29 12:59:03;;;;;;;11.68;5.85;;;12.50;77.40;;;;;;5056132;28;20040;-70
2022/04/29 13:01:38;;;;;;;8.75;5.40;;;12.50;77.60;;;;;;5055598;28;20064;-69
2022/04/29 13:04:06;;;;;;;7.28;4.28;;;12.40;78.50;;;;;;5056445;28;20044;-69
2022/04/29 13:06:35;;;;;;;6.40;4.57;;;12.30;78.20;;;;;;5056441;28;20118;-69
2022/04/29 13:09:02;;;;;;;6.13;4.60;;;12.20;78.10;;;;;;5057458;28;20408;-70
2022/04/29 13:11:32;;;;;;;11.70;5.43;;;12.20;79.00;;;;;;5055489;28;20124;-69
2022/04/29 13:13:59;;;;;;;7.55;4.75;;;12.20;79.30;;;;;;5055606;28;20403;-69
2022/04/29 13:16:26;;;;;;;7.10;5.03;;;12.30;79.00;;;;;;5056425;28;20048;-69
2022/04/29 13:18:56;;;;;;;8.93;4.30;;;12.40;79.40;;;;;;5057111;28;20110;-69
2022/04/29 13:21:24;;;;;;;9.73;5.18;;;12.50;79.80;;;;;;5055193;28;20049;-70
2022/04/29 13:23:51;;;;;;;8.93;5.10;;;12.30;79.10;;;;;;5056481;28;20069;-69
2022/04/29 13:26:18;;;;;;;9.13;5.95;;;12.20;79.90;;;;;;5039191;28;20045;-69
2022/04/29 13:28:45;;;;;;;7.88;5.05;;;12.20;81.20;;;;;;5056183;28;20294;-69
2022/04/29 13:31:12;;;;;;;7.28;4.45;;;12.20;80.20;;;;;;5038873;28;20041;-68
2022/04/29 13:33:41;;;;;;;7.45;5.43;;;12.20;80.70;;;;;;5056387;28;20452;-68